Lakeview, OR

5:37 AM PST on February 25, 2017 (GMT -0800)
Lake County | | Change Station

Elev 4731 ft 42.16 °N, 120.40 °W | Updated 22 minutes ago

Overcast
Overcast
25 °F
Feels Like 17 °F
N
7
Wind Variable Wind from SSE

Today
High -- | Low -- °F
--% Chance of Precip.
Yesterday
High -- | Low -- °F
Precip. -- in
Pressure 30.05 in
Visibility 7.0 miles
Clouds Few 600 ft
Overcast 2600 ft
Windchill 17 °F
Dew Point 19 °F
Humidity 80%
Rainfall 0.00 in
Snow Depth Not available.
6:42 AM 5:47 PM
Waning Crescent, 1% visible
METAR KLKV 251315Z AUTO 15006KT 7SM FEW006 OVC026 M04/M07 A3005 RMK AO1
Pressure 30.05 in
Visibility 7.0 miles
Clouds Few 600 ft
Overcast 2600 ft
Windchill 17 °F
Dew Point 19 °F
Humidity 80%
Rainfall 0.00 in
Snow Depth Not available.
6:42 AM 5:47 PM
Waning Crescent, 1% visible
METAR KLKV 251315Z AUTO 15006KT 7SM FEW006 OVC026 M04/M07 A3005 RMK AO1

Get Your Daily Forecast Email!

Thanks for signing up!

Be on the lookout for a verification email in your inbox.

You'll start receiving the daily forecast at 8 AM.

×

10-Day Weather Forecast

Almanac

Astronomy

Feb. 25, 2017 Rise Set
Actual Time
Civil Twilight
Nautical Twilight
Astronomical Twilight
Moon
Length of Visible Light
Length of Day
Tomorrow will be .
, % of the Moon is Illuminated

Today's Extremes

State Highs State Lows

Community

WunderPhotos

Upload Photos

1,962,540 photos uploaded!

WunderBlog® & News

Nearby

Air Quality

  Air Quality AQ Index Pollutant
Not available.

Snow Depth

Station Depth Elevation

Earthquake Activity

City Distance Mag. Time & Date
Minimum magnitude displayed is 2.5.

Coastal Water Temperatures

Place Temperature

Stations

Nearby Weather Stations

Station Location Temp. Windchill Dew Point Humidity Wind Precip. Elev Updated Type
                   

Watches & Warnings

There are currently no watches in effect.